sensor_id;sensor_type;location;lat;lon;timestamp;pressure;altitude;pressure_sealevel;temperature;humidity
42621;BME280;28252;53.336;-6.298;2023-02-18T00:00:30;101059.16;;;23.73;82.40
42621;BME280;28252;53.336;-6.298;2023-02-18T00:01:13;101070.03;;;23.73;81.95
42621;BME280;28252;53.336;-6.298;2023-02-18T00:01:44;101062.91;;;23.72;82.15
42621;BME280;28252;53.336;-6.298;2023-02-18T00:02:23;101073.78;;;23.72;81.91
42621;BME280;28252;53.336;-6.298;2023-02-18T00:02:59;101066.50;;;23.72;81.96
42621;BME280;28252;53.336;-6.298;2023-02-18T00:03:30;101053.06;;;23.71;82.01
42621;BME280;28252;53.336;-6.298;2023-02-18T00:04:04;101073.13;;;23.69;82.77
42621;BME280;28252;53.336;-6.298;2023-02-18T00:04:37;101066.03;;;23.68;83.46
42621;BME280;28252;53.336;-6.298;2023-02-18T00:05:12;101072.28;;;23.69;82.52
42621;BME280;28252;53.336;-6.298;2023-02-18T00:05:48;101076.91;;;23.68;82.78
42621;BME280;28252;53.336;-6.298;2023-02-18T00:06:25;101071.81;;;23.65;82.79
42621;BME280;28252;53.336;-6.298;2023-02-18T00:07:03;101062.63;;;23.66;83.48
42621;BME280;28252;53.336;-6.298;2023-02-18T00:07:38;101071.81;;;23.65;82.38
42621;BME280;28252;53.336;-6.298;2023-02-18T00:08:11;101059.25;;;23.64;82.27
42621;BME280;28252;53.336;-6.298;2023-02-18T00:08:45;101069.09;;;23.65;82.56
42621;BME280;28252;53.336;-6.298;2023-02-18T00:09:18;101067.22;;;23.66;83.90
42621;BME280;28252;53.336;-6.298;2023-02-18T00:09:52;101069.28;;;23.64;84.16
42621;BME280;28252;53.336;-6.298;2023-02-18T00:10:27;101064.03;;;23.62;84.59
42621;BME280;28252;53.336;-6.298;2023-02-18T00:11:05;101060.47;;;23.62;83.81
42621;BME280;28252;53.336;-6.298;2023-02-18T00:11:39;101066.09;;;23.60;83.77
42621;BME280;28252;53.336;-6.298;2023-02-18T00:12:10;101065.91;;;23.62;82.88
42621;BME280;28252;53.336;-6.298;2023-02-18T00:12:45;101063.38;;;23.60;83.51
42621;BME280;28252;53.336;-6.298;2023-02-18T00:13:21;101064.22;;;23.61;84.30
42621;BME280;28252;53.336;-6.298;2023-02-18T00:13:52;101069.66;;;23.61;84.00
42621;BME280;28252;53.336;-6.298;2023-02-18T00:14:24;101063.38;;;23.60;83.56
42621;BME280;28252;53.336;-6.298;2023-02-18T00:14:57;101067.94;;;23.60;84.68
42621;BME280;28252;53.336;-6.298;2023-02-18T00:15:34;101057.47;;;23.57;84.61
42621;BME280;28252;53.336;-6.298;2023-02-18T00:16:11;101076.31;;;23.58;84.79
42621;BME280;28252;53.336;-6.298;2023-02-18T00:16:50;101066.09;;;23.60;83.54
42621;BME280;28252;53.336;-6.298;2023-02-18T00:17:23;101064.56;;;23.58;84.20
42621;BME280;28252;53.336;-6.298;2023-02-18T00:17:56;101065.44;;;23.58;85.03
42621;BME280;28252;53.336;-6.298;2023-02-18T00:18:32;101054.75;;;23.57;84.24
42621;BME280;28252;53.336;-6.298;2023-02-18T00:19:04;101063.72;;;23.57;83.85
42621;BME280;28252;53.336;-6.298;2023-02-18T00:19:37;101054.91;;;23.55;84.77
42621;BME280;28252;53.336;-6.298;2023-02-18T00:20:11;101059.50;;;23.55;85.20
42621;BME280;28252;53.336;-6.298;2023-02-18T00:20:46;101053.41;;;23.53;85.49
42621;BME280;28252;53.336;-6.298;2023-02-18T00:21:22;101046.28;;;23.52;85.97
42621;BME280;28252;53.336;-6.298;2023-02-18T00:21:53;101043.75;;;23.50;84.43
42621;BME280;28252;53.336;-6.298;2023-02-18T00:22:28;101050.22;;;23.49;84.81
42621;BME280;28252;53.336;-6.298;2023-02-18T00:23:07;101062.78;;;23.50;84.40
42621;BME280;28252;53.336;-6.298;2023-02-18T00:23:38;101049.00;;;23.52;85.13
42621;BME280;28252;53.336;-6.298;2023-02-18T00:24:12;101053.59;;;23.51;85.32
42621;BME280;28252;53.336;-6.298;2023-02-18T00:24:49;101049.19;;;23.50;85.50
42621;BME280;28252;53.336;-6.298;2023-02-18T00:25:22;101056.28;;;23.51;85.24
42621;BME280;28252;53.336;-6.298;2023-02-18T00:26:04;101051.91;;;23.50;84.84
42621;BME280;28252;53.336;-6.298;2023-02-18T00:26:42;101055.47;;;23.50;84.35
42621;BME280;28252;53.336;-6.298;2023-02-18T00:27:14;101054.63;;;23.50;85.60
42621;BME280;28252;53.336;-6.298;2023-02-18T00:27:45;101053.97;;;23.48;85.31
42621;BME280;28252;53.336;-6.298;2023-02-18T00:28:23;101059.41;;;23.48;85.91
42621;BME280;28252;53.336;-6.298;2023-02-18T00:28:57;101052.28;;;23.47;85.69
42621;BME280;28252;53.336;-6.298;2023-02-18T00:29:36;101053.09;;;23.47;86.11
42621;BME280;28252;53.336;-6.298;2023-02-18T00:30:11;101050.56;;;23.46;85.46
42621;BME280;28252;53.336;-6.298;2023-02-18T00:30:45;101048.72;;;23.46;84.98
42621;BME280;28252;53.336;-6.298;2023-02-18T00:31:23;101051.44;;;23.46;85.71
42621;BME280;28252;53.336;-6.298;2023-02-18T00:31:54;101056.00;;;23.46;85.34
42621;BME280;28252;53.336;-6.298;2023-02-18T00:32:26;101048.03;;;23.44;85.30
42621;BME280;28252;53.336;-6.298;2023-02-18T00:33:02;101042.59;;;23.44;85.04
42621;BME280;28252;53.336;-6.298;2023-02-18T00:33:35;101054.34;;;23.45;86.03
42621;BME280;28252;53.336;-6.298;2023-02-18T00:34:09;101052.63;;;23.44;86.15
42621;BME280;28252;53.336;-6.298;2023-02-18T00:34:44;101050.97;;;23.43;85.75
42621;BME280;28252;53.336;-6.298;2023-02-18T00:35:19;101048.44;;;23.41;85.83
42621;BME280;28252;53.336;-6.298;2023-02-18T00:36:00;101054.50;;;23.43;84.34
42621;BME280;28252;53.336;-6.298;2023-02-18T00:36:35;101050.75;;;23.44;84.43
42621;BME280;28252;53.336;-6.298;2023-02-18T00:37:09;101050.97;;;23.43;85.70
42621;BME280;28252;53.336;-6.298;2023-02-18T00:37:42;101048.44;;;23.41;85.89
42621;BME280;28252;53.336;-6.298;2023-02-18T00:38:18;101045.88;;;23.40;85.93
42621;BME280;28252;53.336;-6.298;2023-02-18T00:38:53;101049.25;;;23.42;86.41
42621;BME280;28252;53.336;-6.298;2023-02-18T00:39:28;101042.13;;;23.41;85.57
42621;BME280;28252;53.336;-6.298;2023-02-18T00:40:03;101049.25;;;23.42;85.55
42621;BME280;28252;53.336;-6.298;2023-02-18T00:40:38;101046.72;;;23.40;85.89
42621;BME280;28252;53.336;-6.298;2023-02-18T00:41:13;101044.00;;;23.40;85.69
42621;BME280;28252;53.336;-6.298;2023-02-18T00:41:47;101042.47;;;23.38;85.67
42621;BME280;28252;53.336;-6.298;2023-02-18T00:42:20;101042.47;;;23.38;85.30
42621;BME280;28252;53.336;-6.298;2023-02-18T00:42:51;101043.53;;;23.37;84.94
42621;BME280;28252;53.336;-6.298;2023-02-18T00:43:25;101047.25;;;23.36;86.24
42621;BME280;28252;53.336;-6.298;2023-02-18T00:43:56;101029.94;;;23.37;85.53
42621;BME280;28252;53.336;-6.298;2023-02-18T00:44:34;101039.97;;;23.36;86.35
42621;BME280;28252;53.336;-6.298;2023-02-18T00:45:10;101050.16;;;23.34;87.13
42621;BME280;28252;53.336;-6.298;2023-02-18T00:45:41;101040.16;;;23.35;86.18
42621;BME280;28252;53.336;-6.298;2023-02-18T00:46:14;101042.88;;;23.35;85.88
42621;BME280;28252;53.336;-6.298;2023-02-18T00:46:47;101035.72;;;23.34;85.79
42621;BME280;28252;53.336;-6.298;2023-02-18T00:47:19;101036.75;;;23.33;87.40
42621;BME280;28252;53.336;-6.298;2023-02-18T00:47:54;101039.47;;;23.33;86.98
42621;BME280;28252;53.336;-6.298;2023-02-18T00:48:30;101033.19;;;23.32;87.16
42621;BME280;28252;53.336;-6.298;2023-02-18T00:49:02;101042.19;;;23.33;86.98
42621;BME280;28252;53.336;-6.298;2023-02-18T00:49:33;101024.03;;;23.33;86.28
42621;BME280;28252;53.336;-6.298;2023-02-18T00:50:10;101036.97;;;23.31;87.11
42621;BME280;28252;53.336;-6.298;2023-02-18T00:50:45;101041.53;;;23.30;86.57
42621;BME280;28252;53.336;-6.298;2023-02-18T00:51:19;101039.84;;;23.29;86.03
42621;BME280;28252;53.336;-6.298;2023-02-18T00:51:55;101040.88;;;23.28;87.76
42621;BME280;28252;53.336;-6.298;2023-02-18T00:52:28;101038.16;;;23.28;86.60
42621;BME280;28252;53.336;-6.298;2023-02-18T00:53:02;101042.56;;;23.29;86.24
42621;BME280;28252;53.336;-6.298;2023-02-18T00:53:36;101043.41;;;23.30;86.67
42621;BME280;28252;53.336;-6.298;2023-02-18T00:54:10;101033.38;;;23.30;85.99
42621;BME280;28252;53.336;-6.298;2023-02-18T00:54:43;101033.56;;;23.29;86.24
42621;BME280;28252;53.336;-6.298;2023-02-18T00:55:17;101032.72;;;23.28;86.42
42621;BME280;28252;53.336;-6.298;2023-02-18T00:55:50;101037.13;;;23.29;86.45
42621;BME280;28252;53.336;-6.298;2023-02-18T00:56:21;101045.28;;;23.29;86.05
42621;BME280;28252;53.336;-6.298;2023-02-18T00:56:52;101036.09;;;23.30;86.15
42621;BME280;28252;53.336;-6.298;2023-02-18T00:57:25;101039.00;;;23.29;86.61
42621;BME280;28252;53.336;-6.298;2023-02-18T00:57:58;101025.59;;;23.27;86.54
42621;BME280;28252;53.336;-6.298;2023-02-18T00:58:30;101031.00;;;23.27;86.08
42621;BME280;28252;53.336;-6.298;2023-02-18T00:59:10;101025.97;;;23.24;86.27
42621;BME280;28252;53.336;-6.298;2023-02-18T00:59:43;101036.66;;;23.26;85.82
42621;BME280;28252;53.336;-6.298;2023-02-18T01:00:15;101032.25;;;23.25;85.71
42621;BME280;28252;53.336;-6.298;2023-02-18T01:00:46;101028.50;;;23.26;87.14
42621;BME280;28252;53.336;-6.298;2023-02-18T01:01:22;101018.84;;;23.23;86.40
42621;BME280;28252;53.336;-6.298;2023-02-18T01:01:58;101020.72;;;23.23;87.12
42621;BME280;28252;53.336;-6.298;2023-02-18T01:02:33;101016.28;;;23.22;86.89
42621;BME280;28252;53.336;-6.298;2023-02-18T01:03:07;101040.75;;;23.22;86.83
42621;BME280;28252;53.336;-6.298;2023-02-18T01:03:39;101035.31;;;23.22;86.67
42621;BME280;28252;53.336;-6.298;2023-02-18T01:04:10;101020.91;;;23.21;86.29
42621;BME280;28252;53.336;-6.298;2023-02-18T01:04:44;101026.34;;;23.21;86.52
42621;BME280;28252;53.336;-6.298;2023-02-18T01:05:17;101030.06;;;23.20;86.23
42621;BME280;28252;53.336;-6.298;2023-02-18T01:05:49;101033.44;;;23.22;86.03
42621;BME280;28252;53.336;-6.298;2023-02-18T01:06:24;101030.06;;;23.20;87.11
42621;BME280;28252;53.336;-6.298;2023-02-18T01:06:55;101029.22;;;23.20;87.22
42621;BME280;28252;53.336;-6.298;2023-02-18T01:07:34;101026.69;;;23.18;88.23
42621;BME280;28252;53.336;-6.298;2023-02-18T01:08:10;101022.97;;;23.19;86.59
42621;BME280;28252;53.336;-6.298;2023-02-18T01:08:41;101023.97;;;23.18;86.44
42621;BME280;28252;53.336;-6.298;2023-02-18T01:09:12;101023.31;;;23.16;87.76
42621;BME280;28252;53.336;-6.298;2023-02-18T01:09:48;101026.22;;;23.15;88.61
42621;BME280;28252;53.336;-6.298;2023-02-18T01:10:19;101028.75;;;23.16;87.52
42621;BME280;28252;53.336;-6.298;2023-02-18T01:10:54;101016.53;;;23.12;88.80
42621;BME280;28252;53.336;-6.298;2023-02-18T01:11:31;101025.38;;;23.14;88.33
42621;BME280;28252;53.336;-6.298;2023-02-18T01:12:05;101035.38;;;23.13;87.26
42621;BME280;28252;53.336;-6.298;2023-02-18T01:12:36;101015.53;;;23.13;86.69
42621;BME280;28252;53.336;-6.298;2023-02-18T01:13:10;101007.38;;;23.13;87.19
42621;BME280;28252;53.336;-6.298;2023-02-18T01:13:46;101023.69;;;23.13;87.17
42621;BME280;28252;53.336;-6.298;2023-02-18T01:15:39;101006.91;;;23.09;87.87
42621;BME280;28252;53.336;-6.298;2023-02-18T01:16:15;101017.94;;;23.08;88.49
42621;BME280;28252;53.336;-6.298;2023-02-18T01:16:48;101009.78;;;23.08;87.91
42621;BME280;28252;53.336;-6.298;2023-02-18T01:17:19;101017.94;;;23.08;88.74
42621;BME280;28252;53.336;-6.298;2023-02-18T01:17:55;101008.09;;;23.07;87.94
42621;BME280;28252;53.336;-6.298;2023-02-18T01:18:29;101009.78;;;23.08;87.87
42621;BME280;28252;53.336;-6.298;2023-02-18T01:19:02;101015.41;;;23.06;89.64
42621;BME280;28252;53.336;-6.298;2023-02-18T01:19:35;101027.97;;;23.07;88.02
42621;BME280;28252;53.336;-6.298;2023-02-18T01:20:11;101026.28;;;23.06;88.40
42621;BME280;28252;53.336;-6.298;2023-02-18T01:20:46;101012.69;;;23.06;88.22
42621;BME280;28252;53.336;-6.298;2023-02-18T01:21:21;101001.97;;;23.05;87.93
42621;BME280;28252;53.336;-6.298;2023-02-18T01:21:54;101018.25;;;23.05;88.15
42621;BME280;28252;53.336;-6.298;2023-02-18T01:22:25;101031.84;;;23.05;87.73
42621;BME280;28252;53.336;-6.298;2023-02-18T01:22:59;101020.97;;;23.05;87.54
42621;BME280;28252;53.336;-6.298;2023-02-18T01:23:38;101012.84;;;23.05;88.34
42621;BME280;28252;53.336;-6.298;2023-02-18T01:24:12;101014.88;;;23.03;88.77
42621;BME280;28252;53.336;-6.298;2023-02-18T01:24:46;101020.31;;;23.03;88.20
42621;BME280;28252;53.336;-6.298;2023-02-18T01:25:19;101017.59;;;23.03;88.01
42621;BME280;28252;53.336;-6.298;2023-02-18T01:25:52;101024.91;;;23.02;88.07
42621;BME280;28252;53.336;-6.298;2023-02-18T01:26:28;101013.88;;;23.04;87.48
42621;BME280;28252;53.336;-6.298;2023-02-18T01:27:04;101032.22;;;23.02;89.08
42621;BME280;28252;53.336;-6.298;2023-02-18T01:27:39;101032.22;;;23.02;88.37
42621;BME280;28252;53.336;-6.298;2023-02-18T01:28:14;101032.22;;;23.02;88.09
42621;BME280;28252;53.336;-6.298;2023-02-18T01:28:49;101036.81;;;23.01;87.98
42621;BME280;28252;53.336;-6.298;2023-02-18T01:29:22;101028.84;;;23.00;88.38
42621;BME280;28252;53.336;-6.298;2023-02-18T01:29:56;101023.41;;;23.00;88.38
42621;BME280;28252;53.336;-6.298;2023-02-18T01:30:31;101032.59;;;22.99;88.35
42621;BME280;28252;53.336;-6.298;2023-02-18T01:31:05;101036.97;;;23.00;87.94
42621;BME280;28252;53.336;-6.298;2023-02-18T01:31:42;101038.88;;;22.99;89.32
42621;BME280;28252;53.336;-6.298;2023-02-18T01:32:13;101027.50;;;22.96;88.27
42621;BME280;28252;53.336;-6.298;2023-02-18T01:32:47;101035.50;;;22.97;88.30
42621;BME280;28252;53.336;-6.298;2023-02-18T01:33:22;101037.16;;;22.98;88.54
42621;BME280;28252;53.336;-6.298;2023-02-18T01:33:55;101040.06;;;22.97;89.68
42621;BME280;28252;53.336;-6.298;2023-02-18T01:34:30;101031.91;;;22.97;89.03
42621;BME280;28252;53.336;-6.298;2023-02-18T01:35:05;101022.09;;;22.96;88.66
42621;BME280;28252;53.336;-6.298;2023-02-18T01:35:38;101023.75;;;22.97;88.30
42621;BME280;28252;53.336;-6.298;2023-02-18T01:36:15;101032.94;;;22.96;89.02
42621;BME280;28252;53.336;-6.298;2023-02-18T01:36:51;101025.81;;;22.94;89.91
42621;BME280;28252;53.336;-6.298;2023-02-18T01:37:24;101026.66;;;22.95;89.25
42621;BME280;28252;53.336;-6.298;2023-02-18T01:37:57;101028.53;;;22.94;89.15
42621;BME280;28252;53.336;-6.298;2023-02-18T01:38:28;101018.31;;;22.97;88.15
42621;BME280;28252;53.336;-6.298;2023-02-18T01:38:59;101024.81;;;22.96;88.52
42621;BME280;28252;53.336;-6.298;2023-02-18T01:39:32;101021.44;;;22.93;88.14
42621;BME280;28252;53.336;-6.298;2023-02-18T01:40:06;101009.50;;;22.94;88.49
42621;BME280;28252;53.336;-6.298;2023-02-18T01:40:48;101023.09;;;22.94;88.50
42621;BME280;28252;53.336;-6.298;2023-02-18T01:41:23;101001.38;;;22.94;88.71
42621;BME280;28252;53.336;-6.298;2023-02-18T01:41:56;101015.78;;;22.95;88.55
42621;BME280;28252;53.336;-6.298;2023-02-18T01:42:28;101023.28;;;22.93;88.81
42621;BME280;28252;53.336;-6.298;2023-02-18T01:43:00;101013.28;;;22.93;88.54
42621;BME280;28252;53.336;-6.298;2023-02-18T01:44:22;101018.03;;;22.91;88.73
42621;BME280;28252;53.336;-6.298;2023-02-18T01:44:53;101020.72;;;22.91;88.63
42621;BME280;28252;53.336;-6.298;2023-02-18T01:46:44;101017.84;;;22.93;87.90
42621;BME280;28252;53.336;-6.298;2023-02-18T01:47:17;101018.72;;;22.93;88.07
42621;BME280;28252;53.336;-6.298;2023-02-18T01:47:51;101015.13;;;22.93;88.02
42621;BME280;28252;53.336;-6.298;2023-02-18T01:48:29;101020.56;;;22.93;88.30
42621;BME280;28252;53.336;-6.298;2023-02-18T01:49:08;101015.31;;;22.91;88.02
42621;BME280;28252;53.336;-6.298;2023-02-18T01:49:48;101020.72;;;22.91;88.38
42621;BME280;28252;53.336;-6.298;2023-02-18T01:50:22;101009.88;;;22.91;88.35
42621;BME280;28252;53.336;-6.298;2023-02-18T01:51:02;101011.94;;;22.89;89.07
42621;BME280;28252;53.336;-6.298;2023-02-18T01:51:42;101013.81;;;22.89;88.49
42621;BME280;28252;53.336;-6.298;2023-02-18T01:52:17;101012.75;;;22.90;88.33
42621;BME280;28252;53.336;-6.298;2023-02-18T01:54:16;101025.50;;;22.89;89.70
42621;BME280;28252;53.336;-6.298;2023-02-18T01:54:53;101022.13;;;22.87;88.86
42621;BME280;28252;53.336;-6.298;2023-02-18T01:55:32;101021.13;;;22.88;89.46
42621;BME280;28252;53.336;-6.298;2023-02-18T01:56:10;101017.72;;;22.86;89.15
42621;BME280;28252;53.336;-6.298;2023-02-18T01:57:24;101020.44;;;22.86;89.09
42621;BME280;28252;53.336;-6.298;2023-02-18T01:58:01;101014.34;;;22.84;89.19
42621;BME280;28252;53.336;-6.298;2023-02-18T01:58:37;101010.78;;;22.84;88.74
42621;BME280;28252;53.336;-6.298;2023-02-18T01:59:10;101005.19;;;22.85;88.69
42621;BME280;28252;53.336;-6.298;2023-02-18T01:59:45;101015.19;;;22.85;89.39
42621;BME280;28252;53.336;-6.298;2023-02-18T02:00:25;101016.88;;;22.86;88.65
42621;BME280;28252;53.336;-6.298;2023-02-18T02:00:59;101009.75;;;22.85;88.85
42621;BME280;28252;53.336;-6.298;2023-02-18T02:01:32;101007.03;;;22.85;88.48
42621;BME280;28252;53.336;-6.298;2023-02-18T02:02:12;101023.53;;;22.83;88.86
42621;BME280;28252;53.336;-6.298;2023-02-18T02:02:46;101019.28;;;22.81;89.63
42621;BME280;28252;53.336;-6.298;2023-02-18T02:03:18;101013.84;;;22.81;89.51
42621;BME280;28252;53.336;-6.298;2023-02-18T02:03:49;101009.25;;;22.81;89.22
42621;BME280;28252;53.336;-6.298;2023-02-18T02:04:20;101015.75;;;22.80;88.97
42621;BME280;28252;53.336;-6.298;2023-02-18T02:04:54;101019.28;;;22.81;89.05
42621;BME280;28252;53.336;-6.298;2023-02-18T02:05:31;101028.44;;;22.80;90.00
42621;BME280;28252;53.336;-6.298;2023-02-18T02:06:11;101013.03;;;22.80;89.20
42621;BME280;28252;53.336;-6.298;2023-02-18T02:06:48;101010.31;;;22.80;89.66
42621;BME280;28252;53.336;-6.298;2023-02-18T02:07:36;101005.88;;;22.79;89.21
42621;BME280;28252;53.336;-6.298;2023-02-18T02:08:13;101015.03;;;22.78;89.21
42621;BME280;28252;53.336;-6.298;2023-02-18T02:08:49;101010.66;;;22.77;88.69
42621;BME280;28252;53.336;-6.298;2023-02-18T02:09:24;101022.53;;;22.76;89.29
42621;BME280;28252;53.336;-6.298;2023-02-18T02:10:01;101006.41;;;22.74;88.84
42621;BME280;28252;53.336;-6.298;2023-02-18T02:10:42;101017.47;;;22.73;89.44
42621;BME280;28252;53.336;-6.298;2023-02-18T02:12:57;101012.22;;;22.71;89.34
42621;BME280;28252;53.336;-6.298;2023-02-18T02:16:16;101008.66;;;22.71;89.59
42621;BME280;28252;53.336;-6.298;2023-02-18T02:16:43;101010.72;;;22.69;89.96
42621;BME280;28252;53.336;-6.298;2023-02-18T02:18:46;101028.00;;;22.68;90.15
42621;BME280;28252;53.336;-6.298;2023-02-18T02:24:35;101019.19;;;22.66;89.96
42621;BME280;28252;53.336;-6.298;2023-02-18T02:29:53;101040.63;;;22.61;89.66
42621;BME280;28252;53.336;-6.298;2023-02-18T02:36:29;101020.28;;;22.56;90.38
42621;BME280;28252;53.336;-6.298;2023-02-18T02:37:04;101033.03;;;22.56;90.15
42621;BME280;28252;53.336;-6.298;2023-02-18T02:37:44;101030.50;;;22.54;90.88
42621;BME280;28252;53.336;-6.298;2023-02-18T02:39:51;101027.78;;;22.54;89.96
42621;BME280;28252;53.336;-6.298;2023-02-18T02:41:11;101025.06;;;22.54;90.77
42621;BME280;28252;53.336;-6.298;2023-02-18T02:44:02;101024.19;;;22.54;90.03
42621;BME280;28252;53.336;-6.298;2023-02-18T02:44:52;101028.13;;;22.51;90.58
42621;BME280;28252;53.336;-6.298;2023-02-18T02:46:12;101018.28;;;22.50;90.53
42621;BME280;28252;53.336;-6.298;2023-02-18T02:46:50;101029.13;;;22.50;90.90
42621;BME280;28252;53.336;-6.298;2023-02-18T02:47:32;101022.22;;;22.48;91.25
42621;BME280;28252;53.336;-6.298;2023-02-18T02:51:40;101034.56;;;22.50;91.41
42621;BME280;28252;53.336;-6.298;2023-02-18T02:52:33;101038.31;;;22.49;91.63
42621;BME280;28252;53.336;-6.298;2023-02-18T02:53:10;101032.19;;;22.47;92.21
42621;BME280;28252;53.336;-6.298;2023-02-18T02:53:46;101038.31;;;22.49;91.19
42621;BME280;28252;53.336;-6.298;2023-02-18T02:54:23;101042.03;;;22.48;91.38
42621;BME280;28252;53.336;-6.298;2023-02-18T02:54:58;101033.91;;;22.48;91.24
42621;BME280;28252;53.336;-6.298;2023-02-18T02:55:31;101029.47;;;22.47;91.61
42621;BME280;28252;53.336;-6.298;2023-02-18T02:56:25;101034.91;;;22.47;91.92
42621;BME280;28252;53.336;-6.298;2023-02-18T02:58:02;101037.63;;;22.47;90.98
42621;BME280;28252;53.336;-6.298;2023-02-18T02:58:37;101027.81;;;22.46;91.05
42621;BME280;28252;53.336;-6.298;2023-02-18T02:59:15;101023.22;;;22.47;90.91
42621;BME280;28252;53.336;-6.298;2023-02-18T02:59:58;101034.25;;;22.45;90.77
42621;BME280;28252;53.336;-6.298;2023-02-18T03:02:53;101023.56;;;22.44;90.86
42621;BME280;28252;53.336;-6.298;2023-02-18T03:08:06;101035.16;;;22.37;90.69
42621;BME280;28252;53.336;-6.298;2023-02-18T03:08:53;101029.72;;;22.37;90.94
42621;BME280;28252;53.336;-6.298;2023-02-18T03:09:39;101050.38;;;22.38;90.83
42621;BME280;28252;53.336;-6.298;2023-02-18T03:11:02;101040.41;;;22.39;90.86
42621;BME280;28252;53.336;-6.298;2023-02-18T03:11:16;101035.97;;;22.38;91.07
42621;BME280;28252;53.336;-6.298;2023-02-18T03:12:11;101049.56;;;22.38;91.67
42621;BME280;28252;53.336;-6.298;2023-02-18T03:16:40;101052.25;;;22.38;91.55
42621;BME280;28252;53.336;-6.298;2023-02-18T03:17:24;101056.69;;;22.39;91.18
42621;BME280;28252;53.336;-6.298;2023-02-18T03:18:03;101056.84;;;22.37;92.36
42621;BME280;28252;53.336;-6.298;2023-02-18T03:18:39;101056.00;;;22.37;91.09
42621;BME280;28252;53.336;-6.298;2023-02-18T03:19:17;101063.47;;;22.35;91.71
42621;BME280;28252;53.336;-6.298;2023-02-18T03:19:56;101053.44;;;22.35;90.99
42621;BME280;28252;53.336;-6.298;2023-02-18T03:20:42;101067.88;;;22.36;91.77
42621;BME280;28252;53.336;-6.298;2023-02-18T03:21:21;101052.63;;;22.35;91.59
42621;BME280;28252;53.336;-6.298;2023-02-18T03:21:59;101063.47;;;22.35;91.08
42621;BME280;28252;53.336;-6.298;2023-02-18T03:22:33;101056.38;;;22.34;91.33
42621;BME280;28252;53.336;-6.298;2023-02-18T03:23:10;101070.78;;;22.34;91.53
42621;BME280;28252;53.336;-6.298;2023-02-18T03:23:48;101073.31;;;22.36;91.37
42621;BME280;28252;53.336;-6.298;2023-02-18T03:25:00;101064.81;;;22.39;91.15
42621;BME280;28252;53.336;-6.298;2023-02-18T03:25:31;101051.25;;;22.39;90.94
42621;BME280;28252;53.336;-6.298;2023-02-18T03:26:05;101068.56;;;22.38;91.57
42621;BME280;28252;53.336;-6.298;2023-02-18T03:26:40;101077.34;;;22.40;90.68
42621;BME280;28252;53.336;-6.298;2023-02-18T03:27:24;101066.50;;;22.40;90.82
42621;BME280;28252;53.336;-6.298;2023-02-18T03:28:02;101074.63;;;22.40;91.08
42621;BME280;28252;53.336;-6.298;2023-02-18T03:28:39;101062.13;;;22.39;90.98
42621;BME280;28252;53.336;-6.298;2023-02-18T03:29:11;101063.13;;;22.38;90.62
42621;BME280;28252;53.336;-6.298;2023-02-18T03:29:45;101087.53;;;22.38;90.71
42621;BME280;28252;53.336;-6.298;2023-02-18T03:30:27;101085.84;;;22.37;90.50
42621;BME280;28252;53.336;-6.298;2023-02-18T03:31:11;101073.13;;;22.37;90.17
42621;BME280;28252;53.336;-6.298;2023-02-18T03:31:46;101070.59;;;22.36;91.62
42621;BME280;28252;53.336;-6.298;2023-02-18T03:32:22;101076.19;;;22.34;90.26
42621;BME280;28252;53.336;-6.298;2023-02-18T03:33:00;101069.94;;;22.34;90.27
42621;BME280;28252;53.336;-6.298;2023-02-18T03:33:36;101076.38;;;22.33;90.18
42621;BME280;28252;53.336;-6.298;2023-02-18T03:34:19;101085.53;;;22.32;90.65
42621;BME280;28252;53.336;-6.298;2023-02-18T03:34:55;101080.09;;;22.32;90.48
42621;BME280;28252;53.336;-6.298;2023-02-18T03:35:32;101067.56;;;22.31;90.66
42621;BME280;28252;53.336;-6.298;2023-02-18T03:36:07;101083.84;;;22.31;90.19
42621;BME280;28252;53.336;-6.298;2023-02-18T03:36:41;101075.03;;;22.29;91.50
42621;BME280;28252;53.336;-6.298;2023-02-18T03:37:12;101092.34;;;22.28;90.85
42621;BME280;28252;53.336;-6.298;2023-02-18T03:37:50;101064.19;;;22.29;90.41
42621;BME280;28252;53.336;-6.298;2023-02-18T03:39:19;101083.19;;;22.29;89.95
42621;BME280;28252;53.336;-6.298;2023-02-18T03:39:56;101075.03;;;22.29;90.69
42621;BME280;28252;53.336;-6.298;2023-02-18T03:40:32;101085.16;;;22.27;90.79
42621;BME280;28252;53.336;-6.298;2023-02-18T03:41:08;101057.19;;;22.26;90.56
42621;BME280;28252;53.336;-6.298;2023-02-18T03:41:42;101052.59;;;22.27;90.07
42621;BME280;28252;53.336;-6.298;2023-02-18T03:42:16;101064.50;;;22.26;90.20
42621;BME280;28252;53.336;-6.298;2023-02-18T03:42:50;101071.78;;;22.25;90.21
42621;BME280;28252;53.336;-6.298;2023-02-18T03:43:27;101067.38;;;22.24;91.29
42621;BME280;28252;53.336;-6.298;2023-02-18T03:44:01;101058.41;;;22.24;90.35
42621;BME280;28252;53.336;-6.298;2023-02-18T03:44:33;101059.25;;;22.24;90.64
42621;BME280;28252;53.336;-6.298;2023-02-18T03:45:05;101059.41;;;22.23;90.44
42621;BME280;28252;53.336;-6.298;2023-02-18T03:45:38;101055.69;;;22.24;90.29
42621;BME280;28252;53.336;-6.298;2023-02-18T03:46:16;101065.69;;;22.23;90.07
42621;BME280;28252;53.336;-6.298;2023-02-18T03:46:48;101067.56;;;22.23;89.82
42621;BME280;28252;53.336;-6.298;2023-02-18T03:47:21;101061.13;;;22.24;90.88
42621;BME280;28252;53.336;-6.298;2023-02-18T03:47:56;101066.56;;;22.24;90.31
42621;BME280;28252;53.336;-6.298;2023-02-18T03:48:31;101074.69;;;22.24;90.34
42621;BME280;28252;53.336;-6.298;2023-02-18T03:49:07;101075.69;;;22.23;91.25
42621;BME280;28252;53.336;-6.298;2023-02-18T03:49:39;101067.56;;;22.23;90.42
42621;BME280;28252;53.336;-6.298;2023-02-18T03:50:13;101060.25;;;22.23;89.90
42621;BME280;28252;53.336;-6.298;2023-02-18T03:50:46;101076.72;;;22.22;90.11
42621;BME280;28252;53.336;-6.298;2023-02-18T03:51:22;101055.00;;;22.22;90.13
42621;BME280;28252;53.336;-6.298;2023-02-18T03:51:55;101070.28;;;22.23;89.99
42621;BME280;28252;53.336;-6.298;2023-02-18T03:52:31;101077.75;;;22.20;90.05